createdAt,value
2023-06-06T00:00:24.572Z,8.63
2023-06-06T00:02:51.498Z,9.32
2023-06-06T00:05:19.268Z,9.82
2023-06-06T00:07:47.095Z,9.00
2023-06-06T00:10:16.589Z,9.70
2023-06-06T00:12:44.384Z,9.80
2023-06-06T00:15:14.161Z,9.90
2023-06-06T00:17:42.184Z,9.63
2023-06-06T00:20:11.888Z,9.77
2023-06-06T00:22:40.430Z,10.55
2023-06-06T00:25:08.623Z,9.88
2023-06-06T00:27:37.517Z,10.48
2023-06-06T00:30:05.416Z,10.27
2023-06-06T00:32:32.304Z,10.32
2023-06-06T00:34:59.131Z,9.63
2023-06-06T00:37:26.113Z,10.38
2023-06-06T00:39:52.869Z,9.52
2023-06-06T00:42:19.646Z,9.77
2023-06-06T00:44:47.772Z,10.88
2023-06-06T00:47:15.194Z,10.13
2023-06-06T00:49:45.592Z,10.85
2023-06-06T00:52:12.468Z,10.68
2023-06-06T00:54:39.456Z,10.75
2023-06-06T00:57:07.257Z,11.10
2023-06-06T00:59:34.150Z,11.73
2023-06-06T01:02:02.544Z,11.30
2023-06-06T01:04:29.488Z,11.07
2023-06-06T01:06:56.256Z,11.70
2023-06-06T01:09:23.119Z,10.77
2023-06-06T01:11:59.253Z,11.40
2023-06-06T01:14:31.379Z,11.25
2023-06-06T01:17:03.204Z,10.95
2023-06-06T01:19:31.251Z,11.13
2023-06-06T01:21:59.977Z,10.40
2023-06-06T01:24:26.999Z,10.65
2023-06-06T01:26:54.080Z,10.15
2023-06-06T01:29:20.926Z,10.38
2023-06-06T01:32:06.564Z,10.10
2023-06-06T01:34:39.811Z,10.32
2023-06-06T01:37:14.128Z,9.75
2023-06-06T01:39:47.017Z,9.90
2023-06-06T01:42:15.152Z,10.10
2023-06-06T01:44:43.862Z,9.93
2023-06-06T01:47:12.446Z,9.65
2023-06-06T01:49:41.694Z,9.30
2023-06-06T01:52:10.322Z,9.48
2023-06-06T01:54:37.228Z,8.40
2023-06-06T01:57:04.254Z,9.25
2023-06-06T01:59:31.073Z,9.55
2023-06-06T02:01:57.888Z,9.85
2023-06-06T02:04:24.723Z,9.85
2023-06-06T02:06:51.492Z,9.20
2023-06-06T02:09:19.638Z,9.48
2023-06-06T02:11:46.406Z,9.40
2023-06-06T02:14:13.187Z,9.70
2023-06-06T02:16:40.000Z,9.73
2023-06-06T02:19:06.867Z,9.90
2023-06-06T02:21:33.706Z,10.57
2023-06-06T02:24:00.547Z,10.88
2023-06-06T02:26:28.928Z,9.48
2023-06-06T02:28:55.767Z,9.73
2023-06-06T02:31:22.727Z,10.00
2023-06-06T02:33:49.956Z,10.52
2023-06-06T02:36:16.844Z,10.60
2023-06-06T02:38:43.712Z,10.25
2023-06-06T02:41:10.685Z,10.23
2023-06-06T02:43:38.950Z,10.15
2023-06-06T02:46:05.806Z,9.80
2023-06-06T02:48:32.622Z,9.50
2023-06-06T02:50:59.519Z,10.18
2023-06-06T02:53:26.315Z,10.15
2023-06-06T02:55:53.199Z,10.10
2023-06-06T02:58:27.215Z,9.98
2023-06-06T03:00:55.694Z,10.73
2023-06-06T03:03:22.789Z,11.07
2023-06-06T03:05:49.750Z,11.05
2023-06-06T03:08:16.519Z,11.48
2023-06-06T03:10:45.498Z,12.18
2023-06-06T03:13:12.285Z,11.52
2023-06-06T03:15:39.155Z,11.27
2023-06-06T03:18:07.382Z,11.57
2023-06-06T03:20:34.211Z,11.25
2023-06-06T03:23:00.948Z,10.93
2023-06-06T03:25:27.739Z,6.57
2023-06-06T03:27:54.497Z,6.40
2023-06-06T03:30:21.307Z,5.25
2023-06-06T03:32:48.137Z,4.45
2023-06-06T03:35:16.355Z,3.72
2023-06-06T03:37:43.150Z,4.30
2023-06-06T03:40:11.206Z,3.88
2023-06-06T03:42:38.129Z,3.78
2023-06-06T03:45:06.146Z,4.25
2023-06-06T03:47:33.034Z,3.97
2023-06-06T03:49:59.796Z,3.97
2023-06-06T03:52:27.891Z,4.38
2023-06-06T03:54:54.780Z,4.55
2023-06-06T03:57:21.568Z,4.30
2023-06-06T03:59:48.367Z,6.30
2023-06-06T04:02:15.199Z,5.80
2023-06-06T04:04:42.123Z,5.80
2023-06-06T04:07:09.182Z,7.10
2023-06-06T04:09:37.283Z,5.50
2023-06-06T04:12:04.737Z,4.55
2023-06-06T04:14:31.518Z,4.55
2023-06-06T04:16:58.271Z,4.32
2023-06-06T04:19:25.192Z,3.80
2023-06-06T04:21:51.979Z,3.90
2023-06-06T04:24:18.841Z,3.85
2023-06-06T04:26:47.125Z,3.72
2023-06-06T04:29:14.136Z,3.75
2023-06-06T04:31:41.494Z,4.13
2023-06-06T04:34:08.679Z,4.45
2023-06-06T04:36:35.470Z,4.07
2023-06-06T04:39:02.561Z,3.78
2023-06-06T04:41:52.936Z,4.93
2023-06-06T04:44:17.530Z,5.97
2023-06-06T04:46:44.484Z,5.88
2023-06-06T04:49:11.564Z,5.78
2023-06-06T04:51:38.393Z,4.55
2023-06-06T04:54:06.985Z,4.50
2023-06-06T04:56:33.827Z,4.57
2023-06-06T04:59:01.881Z,3.90
2023-06-06T05:01:30.110Z,4.28
2023-06-06T05:03:56.951Z,3.70
2023-06-06T05:06:23.737Z,3.80
2023-06-06T05:08:50.505Z,3.83
2023-06-06T05:11:19.276Z,3.90
2023-06-06T05:13:46.172Z,3.80
2023-06-06T05:16:13.073Z,3.90
2023-06-06T05:18:41.381Z,3.90
2023-06-06T05:21:09.708Z,4.10
2023-06-06T05:23:36.909Z,4.47
2023-06-06T05:26:03.743Z,4.10
2023-06-06T05:28:30.625Z,4.75
2023-06-06T05:30:57.641Z,4.15
2023-06-06T05:33:24.871Z,4.80
2023-06-06T05:35:53.546Z,4.95
2023-06-06T05:38:20.775Z,4.85
2023-06-06T05:40:47.540Z,5.10
2023-06-06T05:43:15.460Z,4.82
2023-06-06T05:45:45.000Z,4.50
2023-06-06T05:48:12.035Z,4.88
2023-06-06T05:50:39.028Z,5.10
2023-06-06T05:53:07.157Z,5.70
2023-06-06T05:55:35.310Z,5.85
2023-06-06T05:58:03.099Z,6.22
2023-06-06T06:00:31.358Z,6.63
2023-06-06T06:02:58.799Z,6.95
2023-06-06T06:05:26.480Z,7.50
2023-06-06T06:07:53.247Z,7.65
2023-06-06T06:10:21.647Z,7.32
2023-06-06T06:12:48.807Z,7.72
2023-06-06T06:15:15.960Z,8.20
2023-06-06T06:17:43.451Z,8.25
2023-06-06T06:20:11.715Z,8.55
2023-06-06T06:22:38.998Z,8.27
2023-06-06T06:25:07.483Z,8.50
2023-06-06T06:27:36.691Z,7.90
2023-06-06T06:30:05.082Z,7.93
2023-06-06T06:32:33.228Z,7.50
2023-06-06T06:35:00.353Z,6.97
2023-06-06T06:37:28.194Z,7.28
2023-06-06T06:39:55.041Z,7.15
2023-06-06T06:42:22.428Z,5.80
2023-06-06T06:44:51.087Z,6.00
2023-06-06T06:47:18.258Z,5.10
2023-06-06T06:49:47.536Z,6.65
2023-06-06T06:52:14.613Z,5.63
2023-06-06T06:54:46.456Z,5.70
2023-06-06T06:57:13.679Z,6.18
2023-06-06T06:59:42.167Z,5.60
2023-06-06T07:02:10.721Z,5.78
2023-06-06T07:04:37.756Z,5.20
2023-06-06T07:07:05.259Z,5.10
2023-06-06T07:09:32.292Z,5.82
2023-06-06T07:11:59.877Z,5.72
2023-06-06T07:14:26.837Z,5.05
2023-06-06T07:16:55.091Z,5.53
2023-06-06T07:19:24.594Z,5.53
2023-06-06T07:21:51.804Z,5.65
2023-06-06T07:24:18.933Z,5.68
2023-06-06T07:26:45.809Z,5.60
2023-06-06T07:29:12.787Z,5.15
2023-06-06T07:31:40.003Z,5.05
2023-06-06T07:34:06.918Z,5.38
2023-06-06T07:36:35.245Z,4.30
2023-06-06T07:39:02.374Z,4.88
2023-06-06T07:41:29.913Z,4.57
2023-06-06T07:43:56.946Z,4.85
2023-06-06T07:46:23.929Z,4.68
2023-06-06T07:48:50.999Z,4.97
2023-06-06T07:51:18.212Z,4.13
2023-06-06T07:53:47.368Z,3.90
2023-06-06T07:56:15.250Z,3.90
2023-06-06T07:58:43.186Z,3.55
2023-06-06T08:01:12.212Z,3.92
2023-06-06T08:03:39.575Z,3.40
2023-06-06T08:06:07.368Z,3.35
2023-06-06T08:08:34.496Z,3.00
2023-06-06T08:11:03.042Z,2.90
2023-06-06T08:13:30.335Z,3.40
2023-06-06T08:15:58.587Z,3.63
2023-06-06T08:18:25.609Z,4.00
2023-06-06T08:20:52.734Z,4.03
2023-06-06T08:23:19.697Z,3.80
2023-06-06T08:25:46.666Z,3.65
2023-06-06T08:28:15.480Z,3.13
2023-06-06T08:30:42.818Z,3.30
2023-06-06T08:33:09.931Z,3.03
2023-06-06T08:35:36.967Z,2.92
2023-06-06T08:38:04.134Z,3.28
2023-06-06T08:40:31.054Z,2.90
2023-06-06T08:42:59.354Z,2.92
2023-06-06T08:45:28.130Z,2.88
2023-06-06T08:47:55.857Z,2.88
2023-06-06T08:50:24.007Z,2.80
2023-06-06T08:52:52.553Z,2.92
2023-06-06T08:55:20.306Z,2.60
2023-06-06T08:57:49.679Z,2.67
2023-06-06T09:00:17.499Z,2.65
2023-06-06T09:02:48.053Z,2.63
2023-06-06T09:05:18.130Z,2.75
2023-06-06T09:07:45.177Z,2.47
2023-06-06T09:10:12.417Z,2.70
2023-06-06T09:12:42.830Z,2.80
2023-06-06T09:15:10.968Z,2.35
2023-06-06T09:17:37.992Z,2.30
2023-06-06T09:20:21.584Z,2.30
2023-06-06T09:22:49.949Z,2.40
2023-06-06T09:25:22.258Z,2.20
2023-06-06T09:27:50.171Z,2.28
2023-06-06T09:30:21.465Z,2.28
2023-06-06T09:32:53.070Z,2.60
2023-06-06T09:35:21.971Z,2.22
2023-06-06T09:37:49.386Z,2.50
2023-06-06T09:40:18.115Z,2.17
2023-06-06T09:42:46.865Z,2.13
2023-06-06T09:45:16.122Z,2.33
2023-06-06T09:47:46.053Z,2.15
2023-06-06T09:52:46.259Z,2.30
2023-06-06T09:55:14.621Z,2.10
2023-06-06T09:57:42.629Z,1.90
2023-06-06T10:00:12.394Z,2.72
2023-06-06T10:02:42.670Z,2.15
2023-06-06T10:05:12.798Z,1.80
2023-06-06T10:07:41.354Z,2.10
2023-06-06T10:10:12.632Z,1.90
2023-06-06T10:12:40.709Z,1.80
2023-06-06T10:15:09.749Z,1.73
2023-06-06T10:17:37.809Z,1.70
2023-06-06T10:20:06.551Z,1.73
2023-06-06T10:22:35.361Z,1.60
2023-06-06T10:25:03.358Z,1.95
2023-06-06T10:27:43.223Z,1.55
2023-06-06T10:30:18.882Z,1.75
2023-06-06T10:32:53.734Z,1.65
2023-06-06T10:35:21.376Z,1.88
2023-06-06T10:38:09.587Z,1.83
2023-06-06T10:40:43.880Z,1.70
2023-06-06T10:43:19.592Z,1.95
2023-06-06T10:46:01.196Z,1.60
2023-06-06T10:48:36.807Z,1.60
2023-06-06T10:51:04.092Z,1.70
2023-06-06T10:53:31.280Z,2.42
2023-06-06T10:55:58.753Z,1.92
2023-06-06T10:58:32.816Z,1.70
2023-06-06T11:01:01.578Z,1.83
2023-06-06T11:03:39.709Z,1.88
2023-06-06T11:06:14.766Z,2.05
2023-06-06T11:08:46.294Z,2.03
2023-06-06T11:11:34.325Z,2.20
2023-06-06T11:14:06.161Z,2.40
2023-06-06T11:17:06.791Z,1.83
2023-06-06T11:19:37.591Z,2.33
2023-06-06T11:22:05.429Z,2.53
2023-06-06T11:24:34.550Z,2.17
2023-06-06T11:27:01.657Z,2.65
2023-06-06T11:29:30.975Z,2.22
2023-06-06T11:31:58.146Z,2.50
2023-06-06T11:34:26.262Z,2.45
2023-06-06T11:36:53.418Z,2.42
2023-06-06T11:39:20.754Z,2.80
2023-06-06T11:41:49.330Z,2.70
2023-06-06T11:44:17.920Z,2.35
2023-06-06T11:46:51.842Z,2.13
2023-06-06T11:49:21.467Z,2.40
2023-06-06T11:51:55.711Z,2.30
2023-06-06T11:54:23.012Z,2.60
2023-06-06T11:56:51.889Z,2.50
2023-06-06T11:59:19.382Z,2.30
2023-06-06T12:01:52.295Z,2.28
2023-06-06T12:04:19.624Z,2.42
2023-06-06T12:06:47.569Z,2.63
2023-06-06T12:09:15.141Z,2.70
2023-06-06T12:11:50.482Z,2.78
2023-06-06T18:17:01.006Z,1.63
2023-06-06T18:19:27.811Z,2.00
2023-06-06T18:21:54.612Z,2.00
2023-06-06T18:24:21.543Z,1.83
2023-06-06T18:26:48.346Z,1.83
2023-06-06T18:29:15.196Z,2.00
2023-06-06T18:31:42.030Z,1.58
2023-06-06T18:34:10.342Z,1.77
2023-06-06T18:36:37.226Z,1.80
2023-06-06T18:39:04.184Z,2.00
2023-06-06T18:41:30.978Z,1.75
2023-06-06T18:43:57.803Z,1.60
2023-06-06T18:46:24.682Z,1.90
2023-06-06T18:48:51.597Z,1.70
2023-06-06T18:51:20.977Z,1.70
2023-06-06T18:53:47.819Z,2.20
2023-06-06T18:56:14.673Z,2.20
2023-06-06T18:58:41.520Z,1.70
2023-06-06T19:01:08.332Z,2.08
2023-06-06T19:03:35.244Z,2.05
2023-06-06T19:06:02.230Z,1.90
2023-06-06T19:08:30.855Z,2.28
2023-06-06T19:10:58.415Z,2.08
2023-06-06T19:13:25.379Z,1.77
2023-06-06T19:15:52.346Z,2.10
2023-06-06T19:18:30.980Z,1.90
2023-06-06T19:20:59.118Z,2.05
2023-06-06T19:23:26.189Z,1.80
2023-06-06T19:25:54.872Z,1.63
2023-06-06T19:28:21.661Z,1.73
2023-06-06T19:30:48.475Z,1.63
2023-06-06T19:33:15.457Z,1.88
2023-06-06T19:35:42.390Z,1.50
2023-06-06T19:38:09.257Z,1.80
2023-06-06T19:40:36.057Z,1.88
2023-06-06T19:43:04.548Z,1.85
2023-06-06T19:45:31.450Z,1.65
2023-06-06T19:47:58.353Z,1.90
2023-06-06T19:50:25.188Z,2.03
2023-06-06T19:52:52.013Z,1.85
2023-06-06T19:55:18.849Z,2.35
2023-06-06T19:57:45.648Z,2.25
2023-06-06T20:00:14.815Z,1.95
2023-06-06T20:02:42.124Z,1.70
2023-06-06T20:05:10.146Z,1.73
2023-06-06T20:07:37.954Z,2.17
2023-06-06T20:10:05.523Z,1.90
2023-06-06T20:12:32.591Z,1.90
2023-06-06T20:14:59.373Z,1.60
2023-06-06T20:17:27.534Z,1.83
2023-06-06T20:19:54.387Z,2.10
2023-06-06T20:22:21.223Z,1.95
2023-06-06T20:24:48.090Z,2.30
2023-06-06T20:27:16.203Z,3.53
2023-06-06T20:29:43.498Z,2.08
2023-06-06T20:32:10.756Z,1.98
2023-06-06T20:34:39.241Z,2.13
2023-06-06T20:37:06.353Z,2.33
2023-06-06T20:39:34.468Z,2.40
2023-06-06T20:42:01.424Z,2.58
2023-06-06T20:44:28.254Z,2.60
2023-06-06T20:46:55.063Z,2.42
2023-06-06T20:49:21.886Z,2.80
2023-06-06T20:51:50.326Z,2.50
2023-06-06T20:54:17.241Z,2.70
2023-06-06T20:56:44.218Z,3.10
2023-06-06T20:59:11.222Z,3.00
2023-06-06T21:01:38.043Z,3.08
2023-06-06T21:04:05.183Z,2.95
2023-06-06T21:06:31.989Z,2.88
2023-06-06T21:09:00.112Z,3.08
2023-06-06T21:11:26.935Z,3.10
2023-06-06T21:13:53.695Z,3.30
2023-06-06T21:16:20.580Z,4.00
2023-06-06T21:18:47.459Z,3.08
2023-06-06T21:21:14.364Z,3.40
2023-06-06T21:23:41.225Z,3.88
2023-06-06T21:26:11.801Z,3.40
2023-06-06T21:28:38.621Z,3.20
2023-06-06T21:31:05.427Z,3.45
2023-06-06T21:33:32.216Z,3.05
2023-06-06T21:35:59.090Z,3.45
2023-06-06T21:38:25.926Z,3.38
2023-06-06T21:40:52.693Z,3.47
2023-06-06T21:43:20.826Z,3.05
2023-06-06T21:45:47.596Z,3.50
2023-06-06T21:48:14.422Z,3.40
2023-06-06T21:50:41.497Z,3.40
2023-06-06T21:53:08.262Z,3.72
2023-06-06T21:55:35.098Z,3.50
2023-06-06T21:58:01.901Z,3.30
2023-06-06T22:00:30.073Z,3.17
2023-06-06T22:02:56.942Z,3.40
2023-06-06T22:05:23.908Z,3.80
2023-06-06T22:07:50.783Z,3.63
2023-06-06T22:10:17.735Z,3.83
2023-06-06T22:12:44.536Z,3.72
2023-06-06T22:15:11.618Z,3.28
2023-06-06T22:17:39.962Z,3.53
2023-06-06T22:20:08.216Z,3.95
2023-06-06T22:22:35.172Z,4.10
2023-06-06T22:25:02.939Z,4.00
2023-06-06T22:27:29.855Z,3.80
2023-06-06T22:29:56.658Z,3.22
2023-06-06T22:32:23.576Z,3.70
2023-06-06T22:34:51.802Z,3.35
2023-06-06T22:37:18.603Z,3.50
2023-06-06T22:39:45.461Z,3.90
2023-06-06T22:42:12.366Z,3.53
2023-06-06T22:44:39.185Z,3.65
2023-06-06T22:47:06.194Z,3.50
2023-06-06T22:49:33.066Z,3.42
2023-06-06T22:52:01.236Z,3.63
2023-06-06T22:54:28.059Z,3.60
2023-06-06T22:56:54.880Z,3.17
2023-06-06T22:59:21.743Z,3.38
2023-06-06T23:01:50.820Z,3.72
2023-06-06T23:04:17.645Z,3.30
2023-06-06T23:06:44.464Z,3.60
2023-06-06T23:09:12.755Z,3.00
2023-06-06T23:11:39.666Z,3.88
2023-06-06T23:14:06.533Z,3.25
2023-06-06T23:16:33.427Z,3.20
2023-06-06T23:19:00.379Z,2.88
2023-06-06T23:21:27.235Z,3.25
2023-06-06T23:23:54.053Z,2.80
2023-06-06T23:26:22.267Z,3.13
2023-06-06T23:28:49.228Z,2.67
2023-06-06T23:31:16.149Z,2.80
2023-06-06T23:33:43.075Z,3.10
2023-06-06T23:36:09.880Z,2.72
2023-06-06T23:38:36.762Z,3.03
2023-06-06T23:41:03.721Z,2.70
2023-06-06T23:43:33.465Z,3.00
2023-06-06T23:46:01.843Z,3.10
2023-06-06T23:48:28.676Z,3.17
2023-06-06T23:50:55.460Z,3.00
2023-06-06T23:53:22.304Z,2.88
2023-06-06T23:55:49.093Z,2.78
2023-06-06T23:58:15.913Z,3.22
